Time;durP1;ratioP1;P1;durP2;ratioP2;P2;SDS_P1;SDS_P2;PMS_P1;PMS_P2;Temp;Humidity;BMP_temperature;BMP_pressure;BME280_temperature;BME280_humidity;BME280_pressure;Samples;Min_cycle;Max_cycle;Signal;HPM_P1;HPM_P2
2021/05/12 00:01:08;;;;;;;1.53;1.07;;;12.80;98.20;;;;;;4974273;28;20884;-82
2021/05/12 00:03:36;;;;;;;1.50;1.00;;;12.80;98.20;;;;;;4983561;28;20529;-81
2021/05/12 00:06:02;;;;;;;1.53;1.10;;;12.80;98.20;;;;;;4965556;28;20513;-82
2021/05/12 00:08:29;;;;;;;1.60;1.10;;;12.70;98.20;;;;;;4981139;28;20450;-81
2021/05/12 00:10:55;;;;;;;1.50;1.10;;;12.70;98.20;;;;;;4972364;28;20465;-83
2021/05/12 00:13:22;;;;;;;1.53;1.03;;;12.70;98.20;;;;;;4989035;28;20465;-84
2021/05/12 00:15:48;;;;;;;1.50;1.10;;;12.70;98.20;;;;;;4965695;28;20557;-82
2021/05/12 00:18:20;;;;;;;1.60;1.10;;;12.70;98.20;;;;;;4987673;28;20485;-83
2021/05/12 00:20:48;;;;;;;1.50;1.00;;;12.70;98.20;;;;;;4973123;28;20496;-84
2021/05/12 00:23:16;;;;;;;1.60;1.10;;;12.70;98.20;;;;;;4987370;28;20516;-83
2021/05/12 00:25:43;;;;;;;1.60;1.10;;;12.60;98.20;;;;;;4974588;28;20497;-83
2021/05/12 00:28:09;;;;;;;1.50;1.00;;;12.60;98.20;;;;;;4987590;28;20549;-81
2021/05/12 00:30:36;;;;;;;1.50;1.00;;;12.60;98.20;;;;;;4980611;28;20500;-81
2021/05/12 00:33:02;;;;;;;1.50;1.10;;;12.60;98.20;;;;;;4985950;28;20490;-84
2021/05/12 00:35:29;;;;;;;1.50;1.10;;;12.50;98.20;;;;;;4978694;28;20671;-84
2021/05/12 00:37:56;;;;;;;1.50;1.10;;;12.50;98.20;;;;;;4983832;28;20499;-82
2021/05/12 00:40:22;;;;;;;1.53;1.00;;;12.50;98.20;;;;;;4984166;28;20473;-84
2021/05/12 00:42:49;;;;;;;1.50;1.07;;;12.50;98.20;;;;;;4982332;28;20584;-82
2021/05/12 00:45:17;;;;;;;1.53;1.10;;;12.50;98.20;;;;;;4977458;28;20462;-82
2021/05/12 00:47:48;;;;;;;1.50;1.00;;;12.50;98.20;;;;;;4983647;28;20480;-83
2021/05/12 00:50:15;;;;;;;1.50;1.00;;;12.50;98.20;;;;;;4984010;28;20460;-84
2021/05/12 00:52:42;;;;;;;1.53;1.00;;;12.50;98.20;;;;;;4981756;28;20493;-83
2021/05/12 00:55:10;;;;;;;1.50;1.10;;;12.50;98.20;;;;;;4977926;28;20466;-79
2021/05/12 00:57:37;;;;;;;1.60;1.10;;;12.50;98.20;;;;;;4978630;28;21078;-80
2021/05/12 01:00:08;;;;;;;2.00;1.80;;;12.50;98.20;;;;;;4985939;28;20473;-79
2021/05/12 01:02:35;;;;;;;1.57;1.10;;;12.50;98.20;;;;;;4982320;28;20495;-80
2021/05/12 01:05:01;;;;;;;1.50;0.97;;;12.40;98.20;;;;;;4982624;28;20466;-81
2021/05/12 01:07:27;;;;;;;1.57;1.10;;;12.40;98.20;;;;;;4975047;28;20555;-79
2021/05/12 01:09:54;;;;;;;1.50;1.00;;;12.40;98.20;;;;;;4985420;28;20469;-82
2021/05/12 01:12:21;;;;;;;1.50;1.00;;;12.40;98.20;;;;;;4980150;28;20484;-81
2021/05/12 01:14:48;;;;;;;1.53;1.10;;;12.40;98.20;;;;;;4979189;28;20988;-81
2021/05/12 01:17:15;;;;;;;1.53;1.00;;;12.40;98.20;;;;;;4981549;28;20493;-81
2021/05/12 01:19:42;;;;;;;1.50;1.00;;;12.40;98.20;;;;;;4984947;28;20465;-81
2021/05/12 01:22:10;;;;;;;1.50;1.07;;;12.40;98.20;;;;;;4978875;28;20488;-82
2021/05/12 01:24:36;;;;;;;1.53;1.10;;;12.40;98.20;;;;;;4983735;28;20484;-82
2021/05/12 01:27:03;;;;;;;1.50;1.00;;;12.40;98.20;;;;;;4981348;28;20489;-81
2021/05/12 01:29:30;;;;;;;1.53;1.03;;;12.40;98.20;;;;;;4986901;28;20818;-79
2021/05/12 01:31:57;;;;;;;1.57;1.10;;;12.40;98.20;;;;;;4981578;28;20477;-82
2021/05/12 01:34:24;;;;;;;1.57;1.10;;;12.40;98.20;;;;;;4978253;28;20460;-80
2021/05/12 01:36:51;;;;;;;1.53;1.00;;;12.40;98.20;;;;;;4965042;28;20484;-82
2021/05/12 01:39:19;;;;;;;1.53;1.10;;;12.40;98.20;;;;;;4976302;28;20474;-80
2021/05/12 01:41:45;;;;;;;1.50;1.00;;;12.40;98.20;;;;;;4964765;28;20922;-82
2021/05/12 01:44:12;;;;;;;1.53;1.03;;;12.40;98.20;;;;;;4979898;28;20466;-82
2021/05/12 01:46:39;;;;;;;1.53;1.00;;;12.40;98.20;;;;;;4971991;28;20497;-82
2021/05/12 01:49:06;;;;;;;1.50;1.00;;;12.40;98.20;;;;;;4978962;28;20465;-82
2021/05/12 01:51:33;;;;;;;1.50;1.10;;;12.40;98.20;;;;;;4965035;28;20548;-81
2021/05/12 01:54:00;;;;;;;1.50;1.00;;;12.40;98.20;;;;;;4989972;28;20619;-80
2021/05/12 01:56:27;;;;;;;1.50;1.00;;;12.40;98.20;;;;;;4974410;28;20513;-80
2021/05/12 01:58:53;;;;;;;1.60;1.07;;;12.40;98.20;;;;;;4986929;28;20470;-80
2021/05/12 02:01:19;;;;;;;1.50;1.00;;;12.40;98.20;;;;;;4968258;28;20488;-81
2021/05/12 02:03:46;;;;;;;1.53;1.00;;;12.50;98.20;;;;;;4991866;28;20465;-81
2021/05/12 02:06:13;;;;;;;1.50;1.10;;;12.50;98.20;;;;;;4970140;28;21075;-81
2021/05/12 02:08:39;;;;;;;1.50;1.00;;;12.50;98.20;;;;;;4981045;28;20468;-81
2021/05/12 02:11:07;;;;;;;1.57;1.00;;;12.50;98.20;;;;;;4973153;28;20480;-81
2021/05/12 02:13:35;;;;;;;1.50;1.00;;;12.50;98.20;;;;;;4984878;28;20470;-82
2021/05/12 02:16:05;;;;;;;1.50;1.00;;;12.50;98.20;;;;;;4967164;28;20522;-82
2021/05/12 02:18:32;;;;;;;1.50;1.00;;;12.50;98.20;;;;;;4990390;28;20521;-84
2021/05/12 02:21:00;;;;;;;1.50;1.10;;;12.50;98.20;;;;;;4973728;28;20474;-82
2021/05/12 02:23:27;;;;;;;1.53;1.00;;;12.50;98.20;;;;;;4989455;28;20972;-81
2021/05/12 02:25:53;;;;;;;1.53;1.03;;;12.50;98.20;;;;;;4963522;28;20482;-80
2021/05/12 02:28:19;;;;;;;1.50;1.10;;;12.50;98.20;;;;;;4994086;28;20461;-82
2021/05/12 02:30:47;;;;;;;1.50;1.00;;;12.50;98.20;;;;;;4976571;28;20458;-82
2021/05/12 02:33:13;;;;;;;1.50;1.10;;;12.50;98.20;;;;;;4989661;28;20470;-81
2021/05/12 02:35:40;;;;;;;1.50;1.00;;;12.50;98.20;;;;;;4982173;28;20888;-80
2021/05/12 02:38:07;;;;;;;1.50;1.07;;;12.50;98.20;;;;;;4982159;28;20928;-83
2021/05/12 02:40:34;;;;;;;1.50;1.00;;;12.50;98.20;;;;;;4979121;28;20523;-81
2021/05/12 02:43:01;;;;;;;1.50;1.10;;;12.50;98.20;;;;;;4989265;28;20492;-84
2021/05/12 02:45:29;;;;;;;1.53;1.00;;;12.50;98.20;;;;;;4979998;28;20498;-83
2021/05/12 02:47:59;;;;;;;1.60;1.10;;;12.50;98.20;;;;;;4978535;28;20477;-84
2021/05/12 02:50:27;;;;;;;1.50;1.00;;;12.50;98.20;;;;;;4977649;28;21035;-83
2021/05/12 02:52:54;;;;;;;1.53;1.10;;;12.50;98.20;;;;;;4983583;28;20495;-83
2021/05/12 02:55:21;;;;;;;1.57;1.10;;;12.50;98.20;;;;;;4967048;28;20474;-80
2021/05/12 02:57:47;;;;;;;1.50;1.00;;;12.50;98.20;;;;;;4979248;28;21085;-82
2021/05/12 03:00:17;;;;;;;1.50;1.00;;;12.50;98.20;;;;;;4980156;28;20497;-82
2021/05/12 03:02:44;;;;;;;1.50;0.90;;;12.60;98.20;;;;;;4976768;28;20477;-83
2021/05/12 03:05:12;;;;;;;1.50;1.10;;;12.60;98.20;;;;;;4977960;28;20487;-82
2021/05/12 03:07:39;;;;;;;1.50;1.10;;;12.60;98.20;;;;;;4982710;28;20485;-83
2021/05/12 03:10:08;;;;;;;1.50;1.00;;;12.60;98.20;;;;;;4973244;28;20466;-82
2021/05/12 03:12:34;;;;;;;1.50;1.00;;;12.60;98.20;;;;;;4967647;28;20485;-83
2021/05/12 03:15:00;;;;;;;1.53;1.10;;;12.60;98.20;;;;;;4985686;28;20466;-83
2021/05/12 03:17:27;;;;;;;1.50;1.00;;;12.60;98.20;;;;;;4979257;28;20556;-83
2021/05/12 03:19:53;;;;;;;1.53;1.10;;;12.60;98.20;;;;;;4970150;28;20478;-82
2021/05/12 03:22:21;;;;;;;1.50;1.00;;;12.60;98.20;;;;;;4974463;28;20492;-84
2021/05/12 03:24:47;;;;;;;1.60;1.10;;;12.60;98.20;;;;;;4974785;28;20549;-81
2021/05/12 03:27:13;;;;;;;1.50;1.07;;;12.60;98.20;;;;;;4970616;28;20488;-80
2021/05/12 03:29:39;;;;;;;1.57;1.07;;;12.60;98.20;;;;;;4982213;28;20611;-82
2021/05/12 03:32:06;;;;;;;1.50;1.00;;;12.60;98.20;;;;;;4982069;28;20808;-81
2021/05/12 03:34:33;;;;;;;1.50;1.00;;;12.60;98.20;;;;;;4966162;28;20477;-81
2021/05/12 03:36:59;;;;;;;1.50;1.10;;;12.60;98.20;;;;;;4972983;28;20489;-82
2021/05/12 03:39:27;;;;;;;1.60;1.10;;;12.60;98.20;;;;;;4975255;28;20485;-80
2021/05/12 03:41:54;;;;;;;1.57;1.00;;;12.60;98.20;;;;;;4975011;28;20480;-84
2021/05/12 03:44:20;;;;;;;1.50;1.10;;;12.60;98.20;;;;;;4980765;28;20466;-82
2021/05/12 03:46:46;;;;;;;1.50;1.00;;;12.60;98.20;;;;;;4969148;28;20503;-81
2021/05/12 03:49:13;;;;;;;1.50;1.00;;;12.60;98.20;;;;;;4979725;28;20819;-82
2021/05/12 03:51:39;;;;;;;1.50;1.00;;;12.60;98.20;;;;;;4979392;28;20489;-82
2021/05/12 03:54:06;;;;;;;1.50;1.10;;;12.60;98.20;;;;;;4981809;28;20516;-83
2021/05/12 03:56:33;;;;;;;1.57;1.10;;;12.60;98.20;;;;;;4985162;28;20894;-82
2021/05/12 03:58:59;;;;;;;1.50;1.10;;;12.60;98.20;;;;;;4987531;28;20462;-83
2021/05/12 04:01:26;;;;;;;1.50;1.10;;;12.60;98.20;;;;;;4965816;28;20932;-79
2021/05/12 04:03:52;;;;;;;1.50;1.03;;;12.50;98.20;;;;;;4983755;28;20465;-80
2021/05/12 04:06:18;;;;;;;1.50;1.00;;;12.50;98.20;;;;;;4973486;28;20482;-81
2021/05/12 04:08:44;;;;;;;1.53;1.10;;;12.50;98.20;;;;;;4976659;28;20880;-78
2021/05/12 04:11:11;;;;;;;1.50;1.00;;;12.50;98.20;;;;;;4973791;28;20484;-79
2021/05/12 04:13:38;;;;;;;1.50;1.10;;;12.50;98.20;;;;;;4991086;28;20462;-81
2021/05/12 04:16:05;;;;;;;1.50;1.00;;;12.50;98.20;;;;;;4960094;28;20489;-82
2021/05/12 04:18:32;;;;;;;1.50;1.10;;;12.50;98.20;;;;;;4975156;28;20573;-80
2021/05/12 04:20:58;;;;;;;1.50;1.10;;;12.50;98.20;;;;;;4968039;28;20486;-80
2021/05/12 04:23:24;;;;;;;1.50;1.00;;;12.50;98.20;;;;;;4974774;28;20559;-82
2021/05/12 04:25:51;;;;;;;1.50;1.10;;;12.50;98.20;;;;;;4970777;28;20501;-83
2021/05/12 04:28:17;;;;;;;1.50;1.00;;;12.50;98.20;;;;;;4994887;28;20523;-79
2021/05/12 04:30:44;;;;;;;1.50;1.00;;;12.50;98.20;;;;;;4968508;28;20799;-80
2021/05/12 04:33:10;;;;;;;1.50;1.10;;;12.50;98.20;;;;;;4958508;28;20493;-82
2021/05/12 04:35:37;;;;;;;1.50;0.93;;;12.50;98.20;;;;;;4972350;28;20492;-81
2021/05/12 04:38:03;;;;;;;1.50;1.00;;;12.60;98.20;;;;;;4980557;28;20543;-81
2021/05/12 04:40:29;;;;;;;1.50;1.10;;;12.60;98.20;;;;;;4975809;28;20468;-78
2021/05/12 04:42:56;;;;;;;1.50;1.00;;;12.60;98.20;;;;;;4967371;28;20498;-79
2021/05/12 04:45:22;;;;;;;1.50;1.00;;;12.60;98.20;;;;;;4975943;28;21065;-81
2021/05/12 04:47:56;;;;;;;1.50;1.00;;;12.60;98.20;;;;;;4971658;28;20482;-79
2021/05/12 04:50:25;;;;;;;1.50;1.00;;;12.70;98.20;;;;;;4966165;28;20474;-79
2021/05/12 04:52:51;;;;;;;1.50;1.03;;;12.70;98.20;;;;;;4975329;28;20480;-78
2021/05/12 04:55:18;;;;;;;1.50;1.00;;;12.70;98.20;;;;;;4972868;28;20476;-78
2021/05/12 04:57:44;;;;;;;1.50;1.00;;;12.70;98.20;;;;;;4978394;28;20564;-78
2021/05/12 05:00:13;;;;;;;1.50;1.00;;;12.80;98.20;;;;;;4972124;28;20465;-79
2021/05/12 05:02:40;;;;;;;1.50;1.00;;;12.80;98.20;;;;;;4974865;28;20481;-78
2021/05/12 05:05:11;;;;;;;1.50;1.00;;;12.80;98.20;;;;;;4979176;28;20483;-83
2021/05/12 05:07:37;;;;;;;1.50;1.10;;;12.80;98.20;;;;;;4978113;28;21100;-80
2021/05/12 05:10:05;;;;;;;1.50;1.10;;;12.90;98.20;;;;;;4982176;28;20845;-78
2021/05/12 05:12:34;;;;;;;1.50;1.00;;;12.90;98.20;;;;;;4976853;28;20481;-81
2021/05/12 05:15:01;;;;;;;1.50;1.00;;;12.90;98.20;;;;;;4976650;28;20557;-80
2021/05/12 05:17:30;;;;;;;1.50;1.00;;;12.90;98.20;;;;;;4976917;28;20488;-78
2021/05/12 05:19:57;;;;;;;1.50;1.00;;;12.90;98.20;;;;;;4974439;28;20477;-80
2021/05/12 05:22:26;;;;;;;1.50;1.00;;;13.00;98.20;;;;;;4981606;28;20786;-79
2021/05/12 05:24:52;;;;;;;1.50;1.07;;;13.00;98.20;;;;;;4976956;28;20967;-81
2021/05/12 05:27:19;;;;;;;1.50;1.00;;;13.10;98.20;;;;;;4980681;28;20930;-79
2021/05/12 05:29:45;;;;;;;1.50;1.00;;;13.10;98.20;;;;;;4985781;28;20465;-80
2021/05/12 05:32:12;;;;;;;1.50;1.00;;;13.10;98.20;;;;;;4977640;28;20487;-80
2021/05/12 05:34:39;;;;;;;1.50;1.00;;;13.10;98.20;;;;;;4987095;28;20473;-79
2021/05/12 05:37:05;;;;;;;1.50;1.00;;;13.20;98.20;;;;;;4977518;28;20481;-78
2021/05/12 05:39:35;;;;;;;1.50;1.10;;;13.20;98.20;;;;;;4983038;28;20569;-80
2021/05/12 05:42:06;;;;;;;1.50;1.00;;;13.30;98.20;;;;;;4976953;28;20488;-78
2021/05/12 05:44:33;;;;;;;1.50;1.03;;;13.30;98.20;;;;;;4981516;28;20504;-78
2021/05/12 05:46:59;;;;;;;1.50;1.00;;;13.30;98.20;;;;;;4973688;28;20772;-78
2021/05/12 05:49:27;;;;;;;1.50;1.00;;;13.40;98.20;;;;;;4985936;28;20469;-77
2021/05/12 05:51:53;;;;;;;1.50;1.00;;;13.40;98.20;;;;;;4966797;28;20493;-79
2021/05/12 05:54:20;;;;;;;1.50;1.07;;;13.40;98.20;;;;;;4980091;28;20525;-78
2021/05/12 05:56:48;;;;;;;1.50;1.00;;;13.50;98.20;;;;;;4969005;28;20748;-80
2021/05/12 05:59:14;;;;;;;1.50;0.90;;;13.50;98.20;;;;;;4972507;28;20474;-81
2021/05/12 06:01:40;;;;;;;1.50;1.10;;;13.60;98.20;;;;;;4968032;28;20493;-80
2021/05/12 06:04:07;;;;;;;1.53;1.00;;;13.60;98.20;;;;;;4986500;28;20459;-79
2021/05/12 06:06:33;;;;;;;1.57;1.07;;;13.60;98.20;;;;;;4977073;28;20492;-80
2021/05/12 06:09:00;;;;;;;1.50;1.00;;;13.70;98.20;;;;;;4980911;28;20454;-80
2021/05/12 06:11:27;;;;;;;1.50;1.00;;;13.70;98.20;;;;;;4971012;28;21036;-80
2021/05/12 06:13:54;;;;;;;1.50;1.00;;;13.80;98.20;;;;;;4978182;28;20464;-79
2021/05/12 06:16:21;;;;;;;1.50;1.00;;;13.80;98.20;;;;;;4976124;28;20481;-80
2021/05/12 06:18:50;;;;;;;1.57;1.00;;;13.90;98.20;;;;;;4971120;28;20482;-79
2021/05/12 06:21:17;;;;;;;1.50;1.00;;;14.00;98.20;;;;;;4966758;28;20507;-79
2021/05/12 06:23:43;;;;;;;1.50;0.97;;;14.00;98.20;;;;;;4994943;28;20465;-79
2021/05/12 06:26:15;;;;;;;1.50;1.00;;;14.10;98.20;;;;;;4969817;28;20481;-78
2021/05/12 06:28:42;;;;;;;1.50;1.00;;;14.10;98.20;;;;;;4979255;28;20486;-82
2021/05/12 06:31:09;;;;;;;1.50;1.00;;;14.20;98.20;;;;;;4966406;28;20473;-79
2021/05/12 06:33:38;;;;;;;1.50;1.00;;;14.20;98.20;;;;;;4982496;28;20553;-78
2021/05/12 06:36:05;;;;;;;1.50;1.00;;;14.20;98.20;;;;;;4966241;28;20486;-79
2021/05/12 06:38:31;;;;;;;1.50;1.10;;;14.20;98.20;;;;;;4977329;28;20496;-79
2021/05/12 06:40:57;;;;;;;1.50;1.10;;;14.20;98.20;;;;;;4972404;28;20528;-79
2021/05/12 06:43:24;;;;;;;1.50;1.00;;;14.30;98.20;;;;;;4994889;28;20458;-79
2021/05/12 06:45:50;;;;;;;1.50;1.00;;;14.30;98.20;;;;;;4964314;28;20998;-80
2021/05/12 06:48:17;;;;;;;1.50;1.00;;;14.40;98.20;;;;;;4996852;28;20453;-78
2021/05/12 06:50:44;;;;;;;1.53;1.00;;;14.60;98.20;;;;;;4975300;28;20463;-78
2021/05/12 06:53:10;;;;;;;1.50;1.00;;;14.80;98.20;;;;;;4976226;28;20492;-77
2021/05/12 06:55:37;;;;;;;1.50;1.00;;;15.10;98.20;;;;;;4973950;28;20475;-80
2021/05/12 06:58:05;;;;;;;1.50;1.00;;;15.50;98.20;;;;;;4984491;28;20476;-79
2021/05/12 07:00:32;;;;;;;1.53;1.00;;;15.80;98.20;;;;;;4974820;28;20493;-79
2021/05/12 07:02:58;;;;;;;1.53;1.00;;;16.20;97.30;;;;;;4977766;28;20493;-79
2021/05/12 07:05:25;;;;;;;1.50;1.00;;;16.40;95.40;;;;;;4980049;28;20470;-81
2021/05/12 07:07:51;;;;;;;1.53;1.00;;;16.70;95.60;;;;;;4974971;28;21061;-79
2021/05/12 07:10:19;;;;;;;1.57;1.00;;;17.00;94.60;;;;;;4978949;28;20470;-79
2021/05/12 07:12:45;;;;;;;1.50;0.90;;;17.30;93.00;;;;;;4974510;28;20883;-83
2021/05/12 07:15:13;;;;;;;1.53;0.90;;;17.50;92.30;;;;;;4987266;28;20882;-79
2021/05/12 07:17:40;;;;;;;1.57;1.00;;;17.70;92.10;;;;;;4979375;28;20496;-79
2021/05/12 07:20:08;;;;;;;1.50;0.90;;;17.80;90.50;;;;;;4968558;28;20462;-77
2021/05/12 07:22:35;;;;;;;1.50;0.90;;;17.70;90.60;;;;;;4980496;28;21041;-79
2021/05/12 07:25:01;;;;;;;1.50;0.90;;;17.70;90.50;;;;;;4974231;28;20466;-79
2021/05/12 07:27:28;;;;;;;1.50;0.90;;;17.70;90.30;;;;;;4964485;28;20494;-80
2021/05/12 07:29:54;;;;;;;1.50;1.00;;;17.70;90.90;;;;;;4971135;28;20470;-80
2021/05/12 07:32:21;;;;;;;1.60;1.10;;;17.70;91.00;;;;;;4965917;28;20527;-78
2021/05/12 07:34:51;;;;;;;1.50;0.90;;;17.70;90.50;;;;;;4976478;28;20512;-78
2021/05/12 07:37:17;;;;;;;1.50;0.90;;;17.60;90.60;;;;;;4970394;28;20488;-81
2021/05/12 07:39:44;;;;;;;1.50;0.90;;;17.60;90.60;;;;;;4975645;28;20475;-82
2021/05/12 07:42:13;;;;;;;1.50;0.97;;;17.60;91.00;;;;;;4971766;28;20584;-79
2021/05/12 07:44:39;;;;;;;1.50;0.90;;;17.70;90.50;;;;;;4971095;28;20541;-81
2021/05/12 07:47:06;;;;;;;1.50;1.00;;;17.80;90.90;;;;;;4973068;28;21107;-79
2021/05/12 07:49:32;;;;;;;1.50;1.10;;;18.00;90.70;;;;;;4974128;28;20474;-81
2021/05/12 07:51:58;;;;;;;1.50;0.90;;;18.00;90.20;;;;;;4968796;28;20526;-79
2021/05/12 07:54:24;;;;;;;1.50;0.90;;;18.00;88.70;;;;;;4973170;28;20465;-79
2021/05/12 07:56:51;;;;;;;1.50;0.90;;;18.00;89.60;;;;;;4958308;28;20649;-80
2021/05/12 07:59:18;;;;;;;1.50;0.90;;;17.90;89.10;;;;;;4972429;28;20592;-80
2021/05/12 08:01:46;;;;;;;1.50;0.90;;;17.80;88.90;;;;;;4963652;28;20650;-79
2021/05/12 08:04:12;;;;;;;1.50;1.00;;;17.60;90.70;;;;;;4984501;28;20489;-79
2021/05/12 08:06:39;;;;;;;1.50;1.00;;;17.80;91.80;;;;;;4962497;28;20497;-81
2021/05/12 08:09:06;;;;;;;1.60;1.10;;;18.00;90.40;;;;;;4980786;28;20463;-80
2021/05/12 08:11:32;;;;;;;1.50;0.90;;;18.40;91.10;;;;;;4974229;28;20483;-83
2021/05/12 08:13:59;;;;;;;1.50;0.90;;;18.70;89.30;;;;;;4983582;28;20985;-82
2021/05/12 08:16:26;;;;;;;1.53;0.90;;;18.80;87.40;;;;;;4975816;28;20543;-83
2021/05/12 08:18:52;;;;;;;1.50;0.90;;;19.10;88.60;;;;;;4986189;28;20593;-82
2021/05/12 08:21:19;;;;;;;1.50;0.90;;;19.40;88.10;;;;;;4962059;28;20484;-82
2021/05/12 08:23:45;;;;;;;1.50;0.90;;;19.70;86.60;;;;;;4984299;28;20556;-83
2021/05/12 08:26:12;;;;;;;1.60;0.90;;;19.90;85.20;;;;;;4966396;28;20477;-82
2021/05/12 08:28:39;;;;;;;1.50;0.90;;;20.10;85.40;;;;;;4984362;28;20475;-81
2021/05/12 08:31:06;;;;;;;1.50;0.90;;;20.30;84.30;;;;;;4961482;28;21048;-81
2021/05/12 08:33:33;;;;;;;1.50;0.90;;;20.40;84.70;;;;;;4979293;28;20498;-81
2021/05/12 08:35:59;;;;;;;1.57;1.00;;;20.50;84.80;;;;;;4968115;28;20490;-81
2021/05/12 08:38:25;;;;;;;1.50;0.90;;;20.70;84.50;;;;;;4985009;28;20485;-81
2021/05/12 08:40:54;;;;;;;1.50;0.90;;;20.80;83.50;;;;;;4954044;28;20478;-81
2021/05/12 08:43:21;;;;;;;1.53;0.90;;;20.80;81.90;;;;;;4979474;28;20462;-81
2021/05/12 08:45:48;;;;;;;1.50;0.90;;;20.60;82.20;;;;;;4969486;28;20513;-81
2021/05/12 08:48:17;;;;;;;1.50;0.90;;;20.60;83.60;;;;;;4982448;28;20538;-81
2021/05/12 08:50:44;;;;;;;1.50;0.90;;;20.60;84.00;;;;;;4978454;28;20470;-82
2021/05/12 08:53:10;;;;;;;1.50;0.90;;;20.70;82.80;;;;;;4965959;28;20485;-80
2021/05/12 08:55:37;;;;;;;1.50;0.90;;;20.90;82.30;;;;;;4971719;28;20458;-82
2021/05/12 08:58:04;;;;;;;1.50;0.90;;;20.90;81.70;;;;;;4974863;28;21012;-80
2021/05/12 09:00:31;;;;;;;1.50;0.90;;;21.00;81.50;;;;;;4981122;28;20466;-83
2021/05/12 09:02:59;;;;;;;1.50;0.90;;;21.10;82.60;;;;;;4981242;28;20986;-86
2021/05/12 09:05:28;;;;;;;1.50;0.90;;;21.20;82.10;;;;;;4984709;28;20472;-85
2021/05/12 09:07:55;;;;;;;1.50;0.90;;;21.20;81.40;;;;;;4972333;28;20491;-84
2021/05/12 09:10:22;;;;;;;1.50;0.90;;;21.50;82.50;;;;;;4977969;28;20996;-82
2021/05/12 09:12:51;;;;;;;1.50;0.90;;;21.70;81.60;;;;;;4977552;28;20485;-82
2021/05/12 09:15:20;;;;;;;1.50;0.90;;;21.70;79.40;;;;;;4984537;28;20992;-84
2021/05/12 09:17:48;;;;;;;1.50;0.90;;;21.90;80.50;;;;;;4975322;28;20533;-82
2021/05/12 09:20:34;;;;;;;1.50;0.90;;;22.10;79.40;;;;;;4970762;28;20482;-86
2021/05/12 09:23:18;;;;;;;1.50;0.87;;;22.20;79.40;;;;;;4977610;28;20493;-84
2021/05/12 09:25:58;;;;;;;1.50;0.90;;;22.40;78.70;;;;;;4980961;28;20485;-82
2021/05/12 09:28:33;;;;;;;1.50;0.90;;;22.30;78.30;;;;;;4945199;28;20478;-82
2021/05/12 09:31:06;;;;;;;1.53;1.03;;;22.20;77.80;;;;;;4943376;28;20478;-83
2021/05/12 09:33:34;;;;;;;1.50;0.90;;;22.40;79.10;;;;;;4991837;28;20955;-83
2021/05/12 09:36:02;;;;;;;1.50;0.90;;;22.50;77.30;;;;;;4971234;28;20536;-79
2021/05/12 09:38:30;;;;;;;1.43;0.80;;;22.70;76.90;;;;;;4981717;28;20496;-82
2021/05/12 09:41:01;;;;;;;1.50;0.80;;;22.90;77.10;;;;;;4959561;28;20470;-84
2021/05/12 09:43:31;;;;;;;1.50;0.90;;;22.90;76.30;;;;;;4986475;28;20921;-84
2021/05/12 09:46:16;;;;;;;1.50;0.90;;;23.00;76.20;;;;;;4963338;28;21105;-83
2021/05/12 09:48:47;;;;;;;1.50;0.90;;;23.00;75.00;;;;;;4972881;28;20461;-83
2021/05/12 09:51:19;;;;;;;1.50;0.90;;;23.00;75.30;;;;;;4966399;28;20748;-81
2021/05/12 09:54:08;;;;;;;1.50;0.90;;;22.90;75.90;;;;;;4978198;28;20480;-82
2021/05/12 09:56:49;;;;;;;2.60;2.40;;;22.90;76.40;;;;;;4969562;28;20900;-83
2021/05/12 09:59:17;;;;;;;1.50;0.90;;;22.80;76.70;;;;;;4987170;28;20505;-84
2021/05/12 10:01:46;;;;;;;1.50;0.90;;;22.60;77.20;;;;;;4973500;28;20496;-85
2021/05/12 10:04:29;;;;;;;1.50;0.90;;;22.50;78.00;;;;;;4970087;28;20836;-82
2021/05/12 10:06:58;;;;;;;1.50;0.90;;;22.40;77.40;;;;;;4980092;28;20507;-83
2021/05/12 10:09:25;;;;;;;1.70;1.27;;;22.20;78.20;;;;;;4987587;28;20466;-83
2021/05/12 10:12:18;;;;;;;1.50;0.90;;;22.10;78.60;;;;;;4981870;28;20886;-85
2021/05/12 10:14:46;;;;;;;1.50;0.90;;;22.10;78.20;;;;;;4964850;28;20470;-83
2021/05/12 10:17:17;;;;;;;1.50;0.90;;;22.10;78.20;;;;;;4976389;28;20500;-82
2021/05/12 10:19:48;;;;;;;1.50;0.90;;;22.40;77.80;;;;;;4975188;28;20462;-84
2021/05/12 10:22:16;;;;;;;1.50;0.90;;;22.60;78.00;;;;;;4976505;28;20527;-83
2021/05/12 10:24:47;;;;;;;1.50;0.80;;;22.90;76.40;;;;;;4973675;28;20466;-83
2021/05/12 10:27:16;;;;;;;1.50;0.90;;;23.10;74.50;;;;;;4966289;28;20485;-83
2021/05/12 10:29:48;;;;;;;1.47;0.90;;;23.40;75.20;;;;;;4971037;28;20496;-80
2021/05/12 10:32:17;;;;;;;1.50;0.90;;;23.60;73.30;;;;;;4967155;28;20485;-81
2021/05/12 10:34:43;;;;;;;1.50;0.87;;;23.80;73.70;;;;;;4978010;28;20472;-82
2021/05/12 10:37:23;;;;;;;1.50;0.90;;;23.70;74.00;;;;;;4975864;28;20481;-82
2021/05/12 10:39:51;;;;;;;1.50;0.83;;;23.80;71.80;;;;;;4972940;28;20466;-82
2021/05/12 10:42:52;;;;;;;1.50;0.80;;;24.00;71.70;;;;;;4969374;28;20480;-83
2021/05/12 10:45:34;;;;;;;1.50;0.90;;;24.20;71.70;;;;;;4966922;28;20806;-83
2021/05/12 10:48:01;;;;;;;1.50;0.90;;;24.40;72.40;;;;;;4974490;28;20861;-82
2021/05/12 10:50:44;;;;;;;1.50;0.90;;;24.50;70.60;;;;;;4979228;28;20474;-81
2021/05/12 10:53:19;;;;;;;1.50;0.90;;;24.40;70.80;;;;;;4964385;28;20481;-80
2021/05/12 10:56:06;;;;;;;1.50;0.87;;;24.50;69.20;;;;;;4963489;28;20534;-81
2021/05/12 10:58:38;;;;;;;1.50;0.90;;;24.50;69.80;;;;;;4988457;28;20562;-82
2021/05/12 11:01:06;;;;;;;1.50;0.80;;;24.40;72.20;;;;;;4970363;28;20465;-82
2021/05/12 11:04:13;;;;;;;1.50;0.90;;;24.50;70.80;;;;;;4987283;28;20548;-81
2021/05/12 11:07:07;;;;;;;1.50;0.80;;;24.80;70.50;;;;;;4969837;28;20827;-83
2021/05/12 11:09:49;;;;;;;1.50;0.90;;;25.10;68.00;;;;;;4954511;28;20489;-82
2021/05/12 11:12:23;;;;;;;1.50;0.90;;;25.10;66.50;;;;;;4978539;28;21025;-83
2021/05/12 11:15:04;;;;;;;1.50;0.80;;;24.90;67.20;;;;;;4977621;28;20460;-81
2021/05/12 11:17:57;;;;;;;1.50;0.80;;;24.70;68.70;;;;;;4972093;28;20583;-81
2021/05/12 11:20:26;;;;;;;1.50;0.90;;;24.80;66.50;;;;;;4965673;28;20866;-81
2021/05/12 11:22:59;;;;;;;1.50;0.90;;;24.80;67.20;;;;;;4974652;28;20496;-83
2021/05/12 11:25:42;;;;;;;1.50;0.90;;;24.60;66.20;;;;;;4974831;28;20458;-81
2021/05/12 11:33:58;;;;;;;1.50;0.80;;;23.70;67.00;;;;;;4975096;28;20821;-82
2021/05/12 11:36:28;;;;;;;1.50;0.90;;;23.50;67.10;;;;;;4964462;28;20571;-81
2021/05/12 11:38:55;;;;;;;1.50;0.90;;;23.40;68.40;;;;;;4978846;28;20465;-81
2021/05/12 11:41:24;;;;;;;1.50;0.90;;;23.20;70.10;;;;;;4973051;28;20612;-82
2021/05/12 11:43:52;;;;;;;1.50;0.90;;;23.20;69.20;;;;;;4978558;28;21054;-82
2021/05/12 11:46:21;;;;;;;1.50;0.90;;;23.20;70.00;;;;;;4958920;28;20481;-81
2021/05/12 11:48:49;;;;;;;1.50;0.90;;;23.10;68.30;;;;;;4970546;28;20489;-81
2021/05/12 11:51:29;;;;;;;1.50;0.90;;;22.90;68.00;;;;;;4967402;28;20500;-82
2021/05/12 11:53:57;;;;;;;1.50;0.90;;;22.70;69.10;;;;;;4982743;28;20477;-81
2021/05/12 11:56:25;;;;;;;1.50;0.90;;;22.60;68.60;;;;;;4961198;28;20627;-81
2021/05/12 11:58:55;;;;;;;1.50;0.90;;;22.50;70.90;;;;;;4984057;28;20453;-82
2021/05/12 12:01:22;;;;;;;1.50;0.90;;;22.40;70.60;;;;;;4966977;28;20794;-81
2021/05/12 12:03:57;;;;;;;1.50;0.90;;;22.20;70.10;;;;;;4984903;28;20474;-82
2021/05/12 12:06:23;;;;;;;1.50;0.90;;;22.00;71.70;;;;;;4959796;28;20485;-82
2021/05/12 12:08:49;;;;;;;1.50;0.90;;;21.80;71.60;;;;;;4979805;28;20593;-81
2021/05/12 12:11:18;;;;;;;1.43;0.90;;;21.70;71.40;;;;;;4965900;28;20556;-80
2021/05/12 12:13:46;;;;;;;1.50;0.90;;;21.50;71.90;;;;;;4980734;28;20565;-81
2021/05/12 12:16:15;;;;;;;1.50;0.90;;;21.40;70.90;;;;;;4965946;28;20491;-82
2021/05/12 12:18:42;;;;;;;1.50;0.93;;;21.30;70.90;;;;;;4987359;28;20540;-82
2021/05/12 12:21:10;;;;;;;1.50;0.90;;;21.20;71.60;;;;;;4962507;28;20485;-82
2021/05/12 12:23:38;;;;;;;1.50;1.00;;;21.20;70.70;;;;;;4970828;28;20843;-81
2021/05/12 12:26:12;;;;;;;1.50;0.90;;;21.10;71.50;;;;;;4973981;28;20590;-80
2021/05/12 12:28:39;;;;;;;1.50;1.00;;;21.10;72.50;;;;;;4984205;28;20525;-81
2021/05/12 12:31:08;;;;;;;1.50;0.90;;;21.30;72.10;;;;;;4962094;28;21022;-80
2021/05/12 12:33:34;;;;;;;1.50;0.90;;;21.60;72.00;;;;;;4982724;28;20552;-81
2021/05/12 12:36:05;;;;;;;1.50;0.90;;;22.00;70.70;;;;;;4972447;28;20493;-82
2021/05/12 12:38:37;;;;;;;1.50;0.90;;;22.50;69.00;;;;;;4986177;28;20469;-82
2021/05/12 12:41:04;;;;;;;1.50;0.90;;;22.90;69.30;;;;;;4966223;28;20930;-85
2021/05/12 12:43:38;;;;;;;1.50;0.90;;;23.20;68.90;;;;;;4994000;28;20480;-83
2021/05/12 12:46:06;;;;;;;1.50;0.90;;;23.60;67.00;;;;;;4967543;28;20500;-83
2021/05/12 12:48:33;;;;;;;1.50;0.90;;;23.90;66.30;;;;;;4982380;28;20512;-82
2021/05/12 12:50:59;;;;;;;1.50;0.90;;;24.20;65.80;;;;;;4970718;28;20503;-82
2021/05/12 12:53:29;;;;;;;1.50;0.90;;;24.40;66.20;;;;;;4994557;28;20467;-82
2021/05/12 12:56:09;;;;;;;1.50;0.90;;;24.50;65.40;;;;;;4959891;28;20505;-82
2021/05/12 12:58:36;;;;;;;1.50;0.90;;;24.40;63.90;;;;;;4978282;28;20496;-83
2021/05/12 13:01:02;;;;;;;1.47;0.87;;;24.20;65.60;;;;;;4965076;28;20923;-83